createdAt,value
2019-03-16T00:01:57.461Z,10.40
2019-03-16T00:04:25.903Z,10.40
2019-03-16T00:06:55.036Z,10.40
2019-03-16T00:09:24.179Z,10.40
2019-03-16T00:11:53.346Z,10.30
2019-03-16T00:14:22.605Z,10.30
2019-03-16T00:16:51.751Z,10.30
2019-03-16T00:19:20.883Z,10.30
2019-03-16T00:21:50.035Z,10.30
2019-03-16T00:24:19.474Z,10.30
2019-03-16T00:26:48.622Z,10.30
2019-03-16T00:29:18.074Z,10.30
2019-03-16T00:31:47.197Z,10.40
2019-03-16T00:34:16.335Z,10.40
2019-03-16T00:36:45.450Z,10.40
2019-03-16T00:39:14.573Z,10.30
2019-03-16T00:41:43.806Z,10.30
2019-03-16T00:44:12.933Z,10.30
2019-03-16T00:46:42.067Z,10.30
2019-03-16T00:49:11.222Z,10.40
2019-03-16T00:51:40.283Z,10.40
2019-03-16T00:54:09.411Z,10.30
2019-03-16T00:56:38.554Z,10.30
2019-03-16T00:59:07.960Z,10.30
2019-03-16T01:01:37.104Z,10.30
2019-03-16T01:04:06.206Z,10.40
2019-03-16T01:06:35.355Z,10.40
2019-03-16T01:09:06.874Z,10.40
2019-03-16T01:11:36.031Z,10.40
2019-03-16T01:14:05.286Z,10.40
2019-03-16T01:16:34.398Z,10.50
2019-03-16T01:19:03.569Z,10.50
2019-03-16T01:21:32.670Z,10.50
2019-03-16T01:24:01.817Z,10.50
2019-03-16T01:26:30.926Z,10.50
2019-03-16T01:29:00.041Z,10.50
2019-03-16T01:31:29.175Z,10.50
2019-03-16T01:33:58.295Z,10.50
2019-03-16T01:36:27.426Z,10.50
2019-03-16T01:38:56.557Z,10.50
2019-03-16T01:41:25.660Z,10.50
2019-03-16T01:43:55.294Z,10.50
2019-03-16T01:46:24.421Z,10.60
2019-03-16T01:48:53.638Z,10.50
2019-03-16T01:51:22.756Z,10.50
2019-03-16T01:53:51.895Z,10.40
2019-03-16T01:56:21.017Z,10.40
2019-03-16T01:58:50.146Z,10.40
2019-03-16T02:01:19.281Z,10.30
2019-03-16T02:03:48.503Z,10.20
2019-03-16T02:06:17.574Z,10.10
2019-03-16T02:08:46.802Z,10.10
2019-03-16T02:11:15.926Z,10.10
2019-03-16T02:13:45.066Z,10.10
2019-03-16T02:16:14.185Z,10.10
2019-03-16T02:18:43.365Z,10.10
2019-03-16T02:21:12.486Z,10.10
2019-03-16T02:23:41.598Z,10.10
2019-03-16T02:26:10.809Z,10.10
2019-03-16T02:28:39.935Z,10.10
2019-03-16T02:31:09.040Z,10.10
2019-03-16T02:33:38.174Z,10.10
2019-03-16T02:36:07.285Z,10.10
2019-03-16T02:38:36.393Z,10.00
2019-03-16T02:41:05.588Z,10.00
2019-03-16T02:43:34.732Z,10.00
2019-03-16T02:46:03.907Z,10.00
2019-03-16T02:48:33.064Z,10.00
2019-03-16T02:51:02.265Z,10.00
2019-03-16T02:53:31.420Z,10.00
2019-03-16T02:56:00.545Z,10.00
2019-03-16T02:58:29.708Z,10.00
2019-03-16T03:00:58.823Z,10.00
2019-03-16T03:03:29.581Z,10.00
2019-03-16T03:05:58.879Z,10.00
2019-03-16T03:08:28.058Z,10.00
2019-03-16T03:10:57.189Z,10.00
2019-03-16T03:13:26.315Z,10.00
2019-03-16T03:15:55.426Z,10.00
2019-03-16T03:18:24.652Z,10.00
2019-03-16T03:20:53.775Z,10.10
2019-03-16T03:23:22.925Z,10.00
2019-03-16T03:25:52.049Z,10.10
2019-03-16T03:28:21.164Z,10.00
2019-03-16T03:30:50.292Z,10.00
2019-03-16T03:33:19.486Z,10.00
2019-03-16T03:35:48.705Z,10.00
2019-03-16T03:38:17.846Z,10.00
2019-03-16T03:40:46.972Z,10.10
2019-03-16T03:43:16.114Z,10.00
2019-03-16T03:45:45.261Z,10.00
2019-03-16T03:48:14.402Z,10.00
2019-03-16T03:50:43.541Z,10.00
2019-03-16T03:53:12.692Z,10.00
2019-03-16T03:55:41.839Z,10.10
2019-03-16T03:58:10.962Z,10.00
2019-03-16T04:00:40.123Z,10.00
2019-03-16T04:03:09.263Z,10.00
2019-03-16T04:05:38.378Z,10.00
2019-03-16T04:08:07.522Z,10.00
2019-03-16T04:10:36.741Z,10.00
2019-03-16T04:13:05.860Z,10.00
2019-03-16T04:15:35.072Z,10.00
2019-03-16T04:18:04.210Z,10.00
2019-03-16T04:20:33.394Z,10.00
2019-03-16T04:23:02.514Z,10.00
2019-03-16T04:25:32.912Z,10.00
2019-03-16T04:28:02.042Z,10.00
2019-03-16T04:30:31.207Z,10.00
2019-03-16T04:33:00.351Z,10.00
2019-03-16T04:35:29.490Z,10.00
2019-03-16T04:37:58.633Z,10.00
2019-03-16T04:40:27.756Z,9.90
2019-03-16T04:42:57.170Z,10.00
2019-03-16T04:45:26.305Z,10.00
2019-03-16T04:47:55.436Z,10.00
2019-03-16T04:50:24.602Z,10.00
2019-03-16T04:52:53.669Z,9.90
2019-03-16T04:55:22.766Z,9.90
2019-03-16T04:57:51.888Z,9.90
2019-03-16T05:00:21.000Z,9.90
2019-03-16T05:02:50.131Z,9.80
2019-03-16T05:05:19.279Z,9.80
2019-03-16T05:07:48.400Z,9.70
2019-03-16T05:10:17.526Z,9.70
2019-03-16T05:12:46.645Z,9.70
2019-03-16T05:15:15.825Z,9.70
2019-03-16T05:17:44.934Z,9.60
2019-03-16T05:20:14.074Z,9.70
2019-03-16T05:22:43.202Z,9.70
2019-03-16T05:25:12.362Z,9.70
2019-03-16T05:27:41.557Z,9.70
2019-03-16T05:30:11.477Z,9.70
2019-03-16T05:32:40.706Z,9.70
2019-03-16T05:35:09.840Z,9.60
2019-03-16T05:37:38.957Z,9.60
2019-03-16T05:40:08.149Z,9.70
2019-03-16T05:42:37.259Z,9.70
2019-03-16T05:45:06.530Z,9.70
2019-03-16T05:47:35.666Z,9.80
2019-03-16T05:50:05.149Z,9.80
2019-03-16T05:52:34.298Z,9.80
2019-03-16T05:55:03.417Z,9.80
2019-03-16T05:57:32.606Z,9.70
2019-03-16T06:00:01.758Z,9.70
2019-03-16T06:02:30.868Z,9.70
2019-03-16T06:05:09.721Z,9.60
2019-03-16T06:07:30.838Z,9.60
2019-03-16T06:09:59.967Z,9.60
2019-03-16T06:12:29.121Z,9.50
2019-03-16T06:14:58.252Z,9.60
2019-03-16T06:17:27.355Z,9.50
2019-03-16T06:19:56.500Z,9.50
2019-03-16T06:22:25.581Z,9.50
2019-03-16T06:24:54.730Z,9.50
2019-03-16T06:27:23.866Z,9.50
2019-03-16T06:29:53.015Z,9.50
2019-03-16T06:32:22.112Z,9.50
2019-03-16T06:34:51.289Z,9.50
2019-03-16T06:37:20.425Z,9.50
2019-03-16T06:39:49.558Z,9.50
2019-03-16T06:42:18.699Z,9.50
2019-03-16T06:44:47.851Z,9.40
2019-03-16T06:47:16.981Z,9.50
2019-03-16T06:49:46.120Z,9.50
2019-03-16T06:52:15.239Z,9.50
2019-03-16T06:54:44.418Z,9.60
2019-03-16T06:57:13.547Z,9.50
2019-03-16T06:59:42.676Z,9.50
2019-03-16T07:02:11.835Z,9.50
2019-03-16T07:04:40.960Z,9.50
2019-03-16T07:07:10.089Z,9.40
2019-03-16T07:09:39.223Z,9.50
2019-03-16T07:12:08.363Z,9.40
2019-03-16T07:14:37.505Z,9.40
2019-03-16T07:17:06.732Z,9.40
2019-03-16T07:19:35.891Z,9.40
2019-03-16T07:22:05.022Z,9.40
2019-03-16T07:24:34.147Z,9.30
2019-03-16T07:27:03.297Z,9.30
2019-03-16T07:29:32.488Z,9.20
2019-03-16T07:32:01.627Z,9.20
2019-03-16T07:34:30.744Z,9.20
2019-03-16T07:36:59.891Z,9.10
2019-03-16T07:39:29.017Z,9.20
2019-03-16T07:42:00.590Z,9.20
2019-03-16T07:44:29.093Z,9.20
2019-03-16T07:46:58.264Z,9.20
2019-03-16T07:49:27.381Z,9.20
2019-03-16T07:51:56.552Z,9.20
2019-03-16T07:54:25.762Z,9.20
2019-03-16T07:56:54.888Z,9.30
2019-03-16T07:59:24.005Z,9.30
2019-03-16T08:01:54.767Z,9.30
2019-03-16T08:04:23.880Z,9.40
2019-03-16T08:06:53.026Z,9.40
2019-03-16T08:09:22.250Z,9.30
2019-03-16T08:11:51.662Z,9.30
2019-03-16T08:14:20.774Z,9.30
2019-03-16T08:16:49.975Z,9.30
2019-03-16T08:19:19.139Z,9.30
2019-03-16T08:21:48.385Z,9.30
2019-03-16T08:24:17.511Z,9.30
2019-03-16T08:26:46.662Z,9.30
2019-03-16T08:29:15.774Z,9.30
2019-03-16T08:31:44.930Z,9.30
2019-03-16T08:34:14.006Z,9.20
2019-03-16T08:36:43.186Z,9.20
2019-03-16T08:39:12.267Z,9.30
2019-03-16T08:41:41.408Z,9.20
2019-03-16T08:44:10.538Z,9.20
2019-03-16T08:46:39.682Z,9.30
2019-03-16T08:49:08.798Z,9.30
2019-03-16T08:51:37.976Z,9.30
2019-03-16T08:54:07.261Z,9.30
2019-03-16T08:56:36.465Z,9.30
2019-03-16T08:59:05.698Z,9.30
2019-03-16T09:01:34.891Z,9.30
2019-03-16T09:04:04.045Z,9.30
2019-03-16T09:06:33.232Z,9.30
2019-03-16T09:09:02.384Z,9.30
2019-03-16T09:11:31.524Z,9.30
2019-03-16T09:14:00.755Z,9.30
2019-03-16T09:16:29.945Z,9.30
2019-03-16T09:18:59.069Z,9.20
2019-03-16T09:21:28.201Z,9.20
2019-03-16T09:23:57.348Z,9.20
2019-03-16T09:26:26.505Z,9.20
2019-03-16T09:29:00.290Z,9.30
2019-03-16T09:31:26.913Z,9.30
2019-03-16T09:33:56.072Z,9.40
2019-03-16T09:36:25.203Z,9.40
2019-03-16T09:38:54.458Z,9.40
2019-03-16T09:41:23.606Z,9.40
2019-03-16T09:43:52.703Z,9.40
2019-03-16T09:46:21.920Z,9.40
2019-03-16T09:48:51.094Z,9.50
2019-03-16T09:51:20.230Z,9.50
2019-03-16T09:53:49.573Z,9.50
2019-03-16T09:56:18.747Z,9.50
2019-03-16T09:58:47.894Z,9.40
2019-03-16T10:01:16.992Z,9.20
2019-03-16T10:03:46.062Z,9.10
2019-03-16T10:06:15.188Z,9.00
2019-03-16T10:08:44.312Z,9.00
2019-03-16T10:11:13.446Z,9.00
2019-03-16T10:13:42.553Z,8.90
2019-03-16T10:16:11.740Z,8.90
2019-03-16T10:18:40.819Z,8.90
2019-03-16T10:21:09.940Z,8.90
2019-03-16T10:23:39.377Z,9.00
2019-03-16T10:26:08.492Z,9.00
2019-03-16T10:28:43.701Z,9.00
2019-03-16T10:31:08.523Z,9.00
2019-03-16T10:33:37.614Z,9.00
2019-03-16T10:36:06.764Z,9.00
2019-03-16T10:38:38.316Z,9.00
2019-03-16T10:41:06.783Z,9.00
2019-03-16T10:43:35.991Z,9.00
2019-03-16T10:46:05.202Z,9.10
2019-03-16T10:48:34.362Z,9.10
2019-03-16T10:51:03.493Z,9.20
2019-03-16T10:53:32.608Z,9.30
2019-03-16T10:56:01.785Z,9.30
2019-03-16T10:58:30.990Z,9.30
2019-03-16T11:01:00.416Z,9.30
2019-03-16T11:03:29.547Z,9.20
2019-03-16T11:05:58.667Z,9.10
2019-03-16T11:08:27.807Z,9.10
2019-03-16T11:10:56.917Z,9.20
2019-03-16T11:13:26.078Z,9.40
2019-03-16T11:15:55.168Z,9.60
2019-03-16T11:18:24.319Z,9.60
2019-03-16T11:20:53.455Z,9.60
2019-03-16T11:23:22.844Z,9.40
2019-03-16T11:25:51.993Z,9.40
2019-03-16T11:28:21.109Z,9.50
2019-03-16T11:30:50.227Z,9.40
2019-03-16T11:33:19.461Z,9.40
2019-03-16T11:35:48.574Z,9.40
2019-03-16T11:38:17.757Z,9.20
2019-03-16T11:40:46.884Z,9.20
2019-03-16T11:43:16.127Z,9.00
2019-03-16T11:45:45.255Z,8.80
2019-03-16T11:48:14.399Z,8.80
2019-03-16T11:50:43.654Z,8.80
2019-03-16T11:53:12.756Z,8.80
2019-03-16T11:55:41.983Z,8.90
2019-03-16T11:58:11.163Z,9.00
2019-03-16T12:00:41.204Z,9.10
2019-03-16T12:03:10.335Z,9.10
2019-03-16T12:05:39.461Z,9.10
2019-03-16T12:08:08.683Z,9.10
2019-03-16T12:10:37.868Z,9.20
2019-03-16T12:13:16.741Z,9.30
2019-03-16T12:15:37.872Z,9.40
2019-03-16T12:18:07.035Z,9.60
2019-03-16T12:20:36.159Z,9.80
2019-03-16T12:23:05.410Z,10.00
2019-03-16T12:25:34.563Z,10.30
2019-03-16T12:28:03.667Z,10.70
2019-03-16T12:30:32.832Z,11.00
2019-03-16T12:33:01.982Z,10.90
2019-03-16T12:35:31.123Z,10.70
2019-03-16T12:38:00.275Z,10.70
2019-03-16T12:40:29.447Z,10.70
2019-03-16T12:42:58.599Z,10.60
2019-03-16T12:45:27.800Z,10.40
2019-03-16T12:47:56.943Z,10.20
2019-03-16T12:50:26.157Z,10.00
2019-03-16T12:52:55.342Z,9.90
2019-03-16T12:55:24.582Z,9.80
2019-03-16T12:57:53.749Z,9.80
2019-03-16T13:00:22.934Z,9.70
2019-03-16T13:02:52.502Z,9.60
2019-03-16T13:05:21.626Z,9.60
2019-03-16T13:07:50.845Z,9.60
2019-03-16T13:10:20.006Z,9.70
2019-03-16T13:12:49.260Z,9.70
2019-03-16T13:15:18.478Z,9.80
2019-03-16T13:17:47.601Z,9.70
2019-03-16T13:20:16.746Z,9.70
2019-03-16T13:22:45.902Z,9.80
2019-03-16T13:25:15.139Z,9.90
2019-03-16T13:27:44.295Z,9.90
2019-03-16T13:30:14.084Z,9.90
2019-03-16T13:32:43.253Z,10.00
2019-03-16T13:35:12.413Z,10.10
2019-03-16T13:37:41.694Z,10.10
2019-03-16T13:40:12.057Z,10.20
2019-03-16T13:42:41.215Z,10.30
2019-03-16T13:45:10.548Z,10.30
2019-03-16T13:47:39.761Z,10.20
2019-03-16T13:50:10.592Z,10.30
2019-03-16T13:52:40.298Z,10.30
2019-03-16T13:55:09.522Z,10.30
2019-03-16T13:57:38.693Z,10.50
2019-03-16T14:00:12.158Z,10.60
2019-03-16T14:02:40.680Z,10.60
2019-03-16T14:05:09.897Z,10.70
2019-03-16T14:07:39.471Z,10.60
2019-03-16T14:10:11.784Z,10.60
2019-03-16T14:12:41.022Z,10.60
2019-03-16T14:15:10.187Z,10.60
2019-03-16T14:17:39.811Z,10.60
2019-03-16T14:20:11.174Z,10.50
2019-03-16T14:22:40.390Z,10.50
2019-03-16T14:25:09.608Z,10.50
2019-03-16T14:27:38.813Z,10.40
2019-03-16T14:30:09.267Z,10.50
2019-03-16T14:32:38.448Z,10.50
2019-03-16T14:35:07.674Z,10.50
2019-03-16T14:37:36.837Z,10.60
2019-03-16T14:40:06.752Z,10.50
2019-03-16T14:42:36.003Z,10.50
2019-03-16T14:45:06.078Z,10.50
2019-03-16T14:47:35.291Z,10.40
2019-03-16T14:50:05.097Z,10.40
2019-03-16T14:52:34.270Z,10.50
2019-03-16T14:55:03.425Z,10.60
2019-03-16T14:57:32.568Z,10.60
2019-03-16T15:00:01.718Z,10.60
2019-03-16T15:02:30.894Z,10.60
2019-03-16T15:05:00.043Z,10.60
2019-03-16T15:07:29.148Z,10.60
2019-03-16T15:09:58.418Z,10.70
2019-03-16T15:12:27.627Z,10.70
2019-03-16T15:14:56.830Z,10.60
2019-03-16T15:17:25.960Z,10.60
2019-03-16T15:19:55.092Z,10.70
2019-03-16T15:22:24.339Z,10.80
2019-03-16T15:24:53.537Z,10.90
2019-03-16T15:27:22.693Z,10.90
2019-03-16T15:29:51.898Z,11.00
2019-03-16T15:32:21.032Z,11.30
2019-03-16T15:34:50.187Z,11.40
2019-03-16T15:37:19.424Z,11.40
2019-03-16T15:39:48.584Z,11.30
2019-03-16T15:42:17.734Z,11.30
2019-03-16T15:44:46.915Z,11.20
2019-03-16T15:47:16.081Z,11.20
2019-03-16T15:49:45.273Z,11.30
2019-03-16T15:52:14.466Z,11.30
2019-03-16T15:54:43.600Z,11.40
2019-03-16T15:57:12.744Z,11.50
2019-03-16T15:59:41.929Z,11.40
2019-03-16T16:02:11.066Z,11.30
2019-03-16T16:04:40.211Z,11.30
2019-03-16T16:07:09.363Z,11.20
2019-03-16T16:09:38.515Z,11.20
2019-03-16T16:12:07.617Z,11.20
2019-03-16T16:14:36.780Z,11.20
2019-03-16T16:17:05.947Z,11.20
2019-03-16T16:19:35.079Z,11.20
2019-03-16T16:22:04.224Z,11.20
2019-03-16T16:24:33.350Z,11.20
2019-03-16T16:27:02.501Z,11.20
2019-03-16T16:29:31.635Z,11.20
2019-03-16T16:32:00.844Z,11.20
2019-03-16T16:34:30.228Z,11.20
2019-03-16T16:36:59.675Z,11.20
2019-03-16T16:39:28.835Z,11.30
2019-03-16T16:41:57.955Z,11.50
2019-03-16T16:44:27.127Z,11.50
2019-03-16T16:46:56.265Z,11.70
2019-03-16T16:49:25.487Z,11.70
2019-03-16T16:51:54.747Z,11.60
2019-03-16T16:54:23.883Z,11.60
2019-03-16T16:56:53.028Z,11.60
2019-03-16T16:59:22.238Z,11.40
2019-03-16T17:01:51.407Z,11.40
2019-03-16T17:04:20.545Z,11.30
2019-03-16T17:06:49.714Z,11.10
2019-03-16T17:09:18.921Z,11.00
2019-03-16T17:11:48.152Z,11.00
2019-03-16T17:14:17.351Z,10.90
2019-03-16T17:16:46.520Z,10.80
2019-03-16T17:19:15.774Z,10.70
2019-03-16T17:21:45.294Z,10.60
2019-03-16T17:24:15.649Z,10.60
2019-03-16T17:26:44.868Z,10.50
2019-03-16T17:29:14.024Z,10.50
2019-03-16T17:31:43.232Z,10.40
2019-03-16T17:34:12.361Z,10.40
2019-03-16T17:36:41.653Z,10.40
2019-03-16T17:39:10.799Z,10.40
2019-03-16T17:41:39.952Z,10.30
2019-03-16T17:44:09.176Z,10.20
2019-03-16T17:46:38.299Z,10.30
2019-03-16T17:49:07.523Z,10.20
2019-03-16T17:51:36.729Z,10.10
2019-03-16T17:54:05.881Z,10.10
2019-03-16T17:56:35.077Z,10.10
2019-03-16T17:59:04.270Z,10.10
2019-03-16T18:01:33.564Z,10.00
2019-03-16T18:04:02.756Z,9.90
2019-03-16T18:06:32.086Z,9.80
2019-03-16T18:09:02.026Z,9.80
2019-03-16T18:11:31.592Z,9.70
2019-03-16T18:14:00.844Z,9.70
2019-03-16T18:16:30.005Z,9.60
2019-03-16T18:18:59.258Z,9.50
2019-03-16T18:21:28.442Z,9.50
2019-03-16T18:23:57.620Z,9.40
2019-03-16T18:26:26.788Z,9.40
2019-03-16T18:28:55.997Z,9.30
2019-03-16T18:31:25.252Z,9.30
2019-03-16T18:33:54.606Z,9.20
2019-03-16T18:36:23.787Z,9.20
2019-03-16T18:38:52.965Z,9.10
2019-03-16T18:41:22.326Z,9.10
2019-03-16T18:43:51.990Z,9.00
2019-03-16T18:46:21.146Z,8.90
2019-03-16T18:48:50.299Z,8.80
2019-03-16T18:51:19.468Z,8.80
2019-03-16T18:53:48.619Z,8.80
2019-03-16T18:56:17.824Z,8.80
2019-03-16T18:58:46.974Z,8.70
2019-03-16T19:01:16.122Z,8.80
2019-03-16T19:03:45.347Z,8.70
2019-03-16T19:06:14.494Z,8.80
2019-03-16T19:08:43.648Z,8.80
2019-03-16T19:11:12.764Z,8.90
2019-03-16T19:13:41.914Z,8.90
2019-03-16T19:16:11.058Z,9.00
2019-03-16T19:18:40.189Z,9.00
2019-03-16T19:21:09.316Z,9.00
2019-03-16T19:23:38.826Z,8.90
2019-03-16T19:26:07.887Z,8.90
2019-03-16T19:28:37.035Z,8.90
2019-03-16T19:31:06.232Z,8.90
2019-03-16T19:33:35.358Z,8.90
2019-03-16T19:36:04.486Z,8.90
2019-03-16T19:38:33.649Z,8.80
2019-03-16T19:41:02.779Z,8.80
2019-03-16T19:43:31.955Z,8.70
2019-03-16T19:46:01.135Z,8.70
2019-03-16T19:48:30.326Z,8.80
2019-03-16T19:50:59.460Z,8.70
2019-03-16T19:53:28.561Z,8.60
2019-03-16T19:55:57.700Z,8.60
2019-03-16T19:58:26.872Z,8.70
2019-03-16T20:00:56.019Z,8.60
2019-03-16T20:03:25.140Z,8.60
2019-03-16T20:05:54.287Z,8.60
2019-03-16T20:08:23.420Z,8.50
2019-03-16T20:10:52.567Z,8.50
2019-03-16T20:13:21.706Z,8.50
2019-03-16T20:15:50.831Z,8.50
2019-03-16T20:18:20.015Z,8.40
2019-03-16T20:20:49.171Z,8.40
2019-03-16T20:23:18.319Z,8.40
2019-03-16T20:25:47.419Z,8.40
2019-03-16T20:28:16.722Z,8.30
2019-03-16T20:30:45.855Z,8.40
2019-03-16T20:33:15.012Z,8.30
2019-03-16T20:35:44.147Z,8.30
2019-03-16T20:38:13.283Z,8.30
2019-03-16T20:40:42.395Z,8.20
2019-03-16T20:43:11.567Z,8.10
2019-03-16T20:45:40.773Z,8.10
2019-03-16T20:48:10.019Z,8.10
2019-03-16T20:50:39.135Z,8.10
2019-03-16T20:53:08.363Z,8.10
2019-03-16T20:55:41.167Z,8.10
2019-03-16T20:58:10.337Z,8.10
2019-03-16T21:00:39.483Z,8.10
2019-03-16T21:03:16.040Z,8.10
2019-03-16T21:05:39.523Z,8.00
2019-03-16T21:08:08.679Z,8.10
2019-03-16T21:10:37.812Z,8.10
2019-03-16T21:13:06.931Z,8.10
2019-03-16T21:15:36.033Z,8.00
2019-03-16T21:18:05.162Z,8.10
2019-03-16T21:20:34.270Z,8.10
2019-03-16T21:23:03.503Z,8.10
2019-03-16T21:25:32.638Z,8.10
2019-03-16T21:28:01.749Z,8.20
2019-03-16T21:30:30.957Z,8.20
2019-03-16T21:33:00.164Z,8.20
2019-03-16T21:35:29.357Z,8.20
2019-03-16T21:37:58.512Z,8.20
2019-03-16T21:40:27.613Z,8.20
2019-03-16T21:42:56.754Z,8.20
2019-03-16T21:45:25.883Z,8.10
2019-03-16T21:48:00.034Z,8.10
2019-03-16T21:50:25.941Z,8.10
2019-03-16T21:52:55.107Z,8.00
2019-03-16T21:55:24.286Z,8.00
2019-03-16T21:57:53.411Z,7.80
2019-03-16T22:00:22.547Z,7.80
2019-03-16T22:02:51.709Z,7.60
2019-03-16T22:05:20.876Z,7.60
2019-03-16T22:07:50.004Z,7.50
2019-03-16T22:10:19.158Z,7.50
2019-03-16T22:12:48.325Z,7.50
2019-03-16T22:15:17.477Z,7.40
2019-03-16T22:17:46.722Z,7.40
2019-03-16T22:20:15.852Z,7.40
2019-03-16T22:22:45.050Z,7.40
2019-03-16T22:25:14.266Z,7.30
2019-03-16T22:27:43.515Z,7.40
2019-03-16T22:30:12.854Z,7.40
2019-03-16T22:32:41.994Z,7.40
2019-03-16T22:35:11.139Z,7.30
2019-03-16T22:37:40.225Z,7.30
2019-03-16T22:40:09.540Z,7.30
2019-03-16T22:42:38.637Z,7.30
2019-03-16T22:45:08.179Z,7.30
2019-03-16T22:47:37.444Z,7.30
2019-03-16T22:50:06.914Z,7.20
2019-03-16T22:52:36.075Z,7.20
2019-03-16T22:55:05.469Z,7.20
2019-03-16T22:57:34.608Z,7.20
2019-03-16T23:00:04.641Z,7.20
2019-03-16T23:02:33.849Z,7.20
2019-03-16T23:05:03.690Z,7.20
2019-03-16T23:07:32.830Z,7.20
2019-03-16T23:10:01.945Z,7.20
2019-03-16T23:12:31.072Z,7.20
2019-03-16T23:15:00.368Z,7.30
2019-03-16T23:17:29.612Z,7.20
2019-03-16T23:19:58.811Z,7.30
2019-03-16T23:22:27.918Z,7.20
2019-03-16T23:24:57.029Z,7.20
2019-03-16T23:27:26.176Z,7.20
2019-03-16T23:29:55.309Z,7.20
2019-03-16T23:32:24.553Z,7.20
2019-03-16T23:34:53.756Z,7.20
2019-03-16T23:37:22.946Z,7.20
2019-03-16T23:39:52.100Z,7.20
2019-03-16T23:42:21.210Z,7.30
2019-03-16T23:44:50.395Z,7.30
2019-03-16T23:47:19.551Z,7.50
2019-03-16T23:49:48.673Z,7.50
2019-03-16T23:52:17.806Z,7.60
2019-03-16T23:54:46.918Z,7.70
2019-03-16T23:57:16.059Z,7.70
2019-03-16T23:59:45.175Z,7.70
